sensor_id;sensor_type;location;lat;lon;timestamp;temperature;humidity
5792;DHT22;2922;53.482;10.006;2023-04-07T00:02:14;5.10;99.90
5792;DHT22;2922;53.482;10.006;2023-04-07T00:04:40;5.10;99.90
5792;DHT22;2922;53.482;10.006;2023-04-07T00:07:06;5.10;99.90
5792;DHT22;2922;53.482;10.006;2023-04-07T00:09:31;5.10;99.90
5792;DHT22;2922;53.482;10.006;2023-04-07T00:11:57;5.10;99.90
5792;DHT22;2922;53.482;10.006;2023-04-07T00:14:22;5.10;99.90
5792;DHT22;2922;53.482;10.006;2023-04-07T00:16:48;5.00;99.90
5792;DHT22;2922;53.482;10.006;2023-04-07T00:19:13;5.00;99.90
5792;DHT22;2922;53.482;10.006;2023-04-07T00:21:39;5.00;99.90
5792;DHT22;2922;53.482;10.006;2023-04-07T00:24:05;5.00;99.90
5792;DHT22;2922;53.482;10.006;2023-04-07T00:26:31;5.00;99.90
5792;DHT22;2922;53.482;10.006;2023-04-07T00:28:58;4.90;99.90
5792;DHT22;2922;53.482;10.006;2023-04-07T00:31:23;4.90;99.90
5792;DHT22;2922;53.482;10.006;2023-04-07T00:33:49;4.90;99.90
5792;DHT22;2922;53.482;10.006;2023-04-07T00:36:14;4.80;99.90
5792;DHT22;2922;53.482;10.006;2023-04-07T00:38:40;4.80;99.90
5792;DHT22;2922;53.482;10.006;2023-04-07T00:41:06;4.80;99.90
5792;DHT22;2922;53.482;10.006;2023-04-07T00:43:31;4.80;99.90
5792;DHT22;2922;53.482;10.006;2023-04-07T00:45:57;4.70;99.90
5792;DHT22;2922;53.482;10.006;2023-04-07T00:48:23;4.70;99.90
5792;DHT22;2922;53.482;10.006;2023-04-07T00:50:50;4.70;99.90
5792;DHT22;2922;53.482;10.006;2023-04-07T00:53:16;4.70;99.90
5792;DHT22;2922;53.482;10.006;2023-04-07T00:55:41;4.70;99.90
5792;DHT22;2922;53.482;10.006;2023-04-07T00:58:07;4.60;99.90
5792;DHT22;2922;53.482;10.006;2023-04-07T01:00:37;4.60;99.90
5792;DHT22;2922;53.482;10.006;2023-04-07T01:03:09;4.60;99.90
5792;DHT22;2922;53.482;10.006;2023-04-07T01:05:41;4.60;99.90
5792;DHT22;2922;53.482;10.006;2023-04-07T01:08:23;4.60;99.90
5792;DHT22;2922;53.482;10.006;2023-04-07T01:10:59;4.60;99.90
5792;DHT22;2922;53.482;10.006;2023-04-07T01:13:33;4.50;99.90
5792;DHT22;2922;53.482;10.006;2023-04-07T01:16:04;4.50;99.90
5792;DHT22;2922;53.482;10.006;2023-04-07T01:18:34;4.50;99.90
5792;DHT22;2922;53.482;10.006;2023-04-07T01:21:13;4.50;99.90
5792;DHT22;2922;53.482;10.006;2023-04-07T01:26:29;4.40;99.90
5792;DHT22;2922;53.482;10.006;2023-04-07T01:31:59;4.40;99.90
5792;DHT22;2922;53.482;10.006;2023-04-07T01:34:29;4.40;99.90
5792;DHT22;2922;53.482;10.006;2023-04-07T01:36:56;4.30;99.90
5792;DHT22;2922;53.482;10.006;2023-04-07T01:39:22;4.30;99.90
5792;DHT22;2922;53.482;10.006;2023-04-07T01:41:50;4.30;99.90
5792;DHT22;2922;53.482;10.006;2023-04-07T01:44:18;4.30;99.90
5792;DHT22;2922;53.482;10.006;2023-04-07T01:46:44;4.20;99.90
5792;DHT22;2922;53.482;10.006;2023-04-07T01:49:11;4.20;99.90
5792;DHT22;2922;53.482;10.006;2023-04-07T01:51:37;4.20;99.90
5792;DHT22;2922;53.482;10.006;2023-04-07T01:54:04;4.20;99.90
5792;DHT22;2922;53.482;10.006;2023-04-07T01:56:30;4.20;99.90
5792;DHT22;2922;53.482;10.006;2023-04-07T01:58:55;4.10;99.90
5792;DHT22;2922;53.482;10.006;2023-04-07T02:01:21;4.10;99.90
5792;DHT22;2922;53.482;10.006;2023-04-07T02:04:01;4.10;99.90
5792;DHT22;2922;53.482;10.006;2023-04-07T02:06:54;4.10;99.90
5792;DHT22;2922;53.482;10.006;2023-04-07T02:09:20;4.10;99.90
5792;DHT22;2922;53.482;10.006;2023-04-07T02:11:47;4.10;99.90
5792;DHT22;2922;53.482;10.006;2023-04-07T02:14:14;4.00;99.90
5792;DHT22;2922;53.482;10.006;2023-04-07T02:16:42;4.00;99.90
5792;DHT22;2922;53.482;10.006;2023-04-07T02:19:08;4.00;99.90
5792;DHT22;2922;53.482;10.006;2023-04-07T02:21:34;4.00;99.90
5792;DHT22;2922;53.482;10.006;2023-04-07T02:24:05;3.90;99.90
5792;DHT22;2922;53.482;10.006;2023-04-07T02:26:34;3.90;99.90
5792;DHT22;2922;53.482;10.006;2023-04-07T02:29:03;3.90;99.90
5792;DHT22;2922;53.482;10.006;2023-04-07T02:31:29;3.90;99.90
5792;DHT22;2922;53.482;10.006;2023-04-07T02:33:55;3.80;99.90
5792;DHT22;2922;53.482;10.006;2023-04-07T02:36:20;3.80;99.90
5792;DHT22;2922;53.482;10.006;2023-04-07T02:38:46;3.80;99.90
5792;DHT22;2922;53.482;10.006;2023-04-07T02:41:11;3.80;99.90
5792;DHT22;2922;53.482;10.006;2023-04-07T02:43:37;3.70;99.90
5792;DHT22;2922;53.482;10.006;2023-04-07T02:46:02;3.70;99.90
5792;DHT22;2922;53.482;10.006;2023-04-07T02:48:28;3.70;99.90
5792;DHT22;2922;53.482;10.006;2023-04-07T02:50:54;3.70;99.90
5792;DHT22;2922;53.482;10.006;2023-04-07T02:53:19;3.60;99.90
5792;DHT22;2922;53.482;10.006;2023-04-07T02:55:45;3.60;99.90
5792;DHT22;2922;53.482;10.006;2023-04-07T02:58:11;3.50;99.90
5792;DHT22;2922;53.482;10.006;2023-04-07T03:00:37;3.50;99.90
5792;DHT22;2922;53.482;10.006;2023-04-07T03:03:02;3.50;99.90
5792;DHT22;2922;53.482;10.006;2023-04-07T03:05:28;3.50;99.90
5792;DHT22;2922;53.482;10.006;2023-04-07T03:07:53;3.40;99.90
5792;DHT22;2922;53.482;10.006;2023-04-07T03:10:19;3.40;99.90
5792;DHT22;2922;53.482;10.006;2023-04-07T03:12:44;3.40;99.90
5792;DHT22;2922;53.482;10.006;2023-04-07T03:15:10;3.40;99.90
5792;DHT22;2922;53.482;10.006;2023-04-07T03:17:36;3.30;99.90
5792;DHT22;2922;53.482;10.006;2023-04-07T03:20:01;3.30;99.90
5792;DHT22;2922;53.482;10.006;2023-04-07T03:22:27;3.20;99.90
5792;DHT22;2922;53.482;10.006;2023-04-07T03:24:52;3.20;99.90
5792;DHT22;2922;53.482;10.006;2023-04-07T03:27:18;3.20;99.90
5792;DHT22;2922;53.482;10.006;2023-04-07T03:29:44;3.20;99.90
5792;DHT22;2922;53.482;10.006;2023-04-07T03:32:11;3.10;99.90
5792;DHT22;2922;53.482;10.006;2023-04-07T03:34:37;3.10;99.90
5792;DHT22;2922;53.482;10.006;2023-04-07T03:37:02;3.10;99.90
5792;DHT22;2922;53.482;10.006;2023-04-07T03:39:28;3.00;99.90
5792;DHT22;2922;53.482;10.006;2023-04-07T03:41:53;3.00;99.90
5792;DHT22;2922;53.482;10.006;2023-04-07T03:44:19;3.00;99.90
5792;DHT22;2922;53.482;10.006;2023-04-07T03:46:44;3.00;99.90
5792;DHT22;2922;53.482;10.006;2023-04-07T03:49:11;2.90;99.90
5792;DHT22;2922;53.482;10.006;2023-04-07T03:51:36;2.90;99.90
5792;DHT22;2922;53.482;10.006;2023-04-07T03:54:02;2.90;99.90
5792;DHT22;2922;53.482;10.006;2023-04-07T03:56:28;2.90;99.90
5792;DHT22;2922;53.482;10.006;2023-04-07T03:58:53;2.90;99.90
5792;DHT22;2922;53.482;10.006;2023-04-07T04:01:20;2.90;99.90
5792;DHT22;2922;53.482;10.006;2023-04-07T04:03:46;2.80;99.90
5792;DHT22;2922;53.482;10.006;2023-04-07T04:06:11;2.80;99.90
5792;DHT22;2922;53.482;10.006;2023-04-07T04:08:37;2.80;99.90
5792;DHT22;2922;53.482;10.006;2023-04-07T04:11:02;2.80;99.90
5792;DHT22;2922;53.482;10.006;2023-04-07T04:13:28;2.80;99.90
5792;DHT22;2922;53.482;10.006;2023-04-07T04:15:53;2.80;99.90
5792;DHT22;2922;53.482;10.006;2023-04-07T04:18:19;2.80;99.90
5792;DHT22;2922;53.482;10.006;2023-04-07T04:20:45;2.80;99.90
5792;DHT22;2922;53.482;10.006;2023-04-07T04:23:12;2.80;99.90
5792;DHT22;2922;53.482;10.006;2023-04-07T04:25:37;2.70;99.90
5792;DHT22;2922;53.482;10.006;2023-04-07T04:28:05;2.70;99.90
5792;DHT22;2922;53.482;10.006;2023-04-07T04:30:31;2.70;99.90
5792;DHT22;2922;53.482;10.006;2023-04-07T04:32:56;2.70;99.90
5792;DHT22;2922;53.482;10.006;2023-04-07T04:35:22;2.70;99.90
5792;DHT22;2922;53.482;10.006;2023-04-07T04:37:47;2.70;99.90
5792;DHT22;2922;53.482;10.006;2023-04-07T04:40:13;2.70;99.90
5792;DHT22;2922;53.482;10.006;2023-04-07T04:42:39;2.70;99.90
5792;DHT22;2922;53.482;10.006;2023-04-07T04:45:05;2.60;99.90
5792;DHT22;2922;53.482;10.006;2023-04-07T04:47:31;2.60;99.90
5792;DHT22;2922;53.482;10.006;2023-04-07T04:49:56;2.60;99.90
5792;DHT22;2922;53.482;10.006;2023-04-07T04:52:22;2.60;99.90
5792;DHT22;2922;53.482;10.006;2023-04-07T04:54:47;2.60;99.90
5792;DHT22;2922;53.482;10.006;2023-04-07T04:57:13;2.60;99.90
5792;DHT22;2922;53.482;10.006;2023-04-07T04:59:38;2.60;99.90
5792;DHT22;2922;53.482;10.006;2023-04-07T05:02:04;2.60;99.90
5792;DHT22;2922;53.482;10.006;2023-04-07T05:04:30;2.60;99.90
5792;DHT22;2922;53.482;10.006;2023-04-07T05:06:56;2.60;99.90
5792;DHT22;2922;53.482;10.006;2023-04-07T05:09:21;2.60;99.90
5792;DHT22;2922;53.482;10.006;2023-04-07T05:11:47;2.60;99.90
5792;DHT22;2922;53.482;10.006;2023-04-07T05:14:12;2.60;99.90
5792;DHT22;2922;53.482;10.006;2023-04-07T05:16:38;2.60;99.90
5792;DHT22;2922;53.482;10.006;2023-04-07T05:19:04;2.60;99.90
5792;DHT22;2922;53.482;10.006;2023-04-07T05:21:29;2.60;99.90
5792;DHT22;2922;53.482;10.006;2023-04-07T05:23:55;2.60;99.90
5792;DHT22;2922;53.482;10.006;2023-04-07T05:26:21;2.60;99.90
5792;DHT22;2922;53.482;10.006;2023-04-07T05:28:46;2.60;99.90
5792;DHT22;2922;53.482;10.006;2023-04-07T05:31:12;2.70;99.90
5792;DHT22;2922;53.482;10.006;2023-04-07T05:33:38;2.70;99.90
5792;DHT22;2922;53.482;10.006;2023-04-07T05:36:03;2.70;99.90
5792;DHT22;2922;53.482;10.006;2023-04-07T05:38:29;2.80;99.90
5792;DHT22;2922;53.482;10.006;2023-04-07T05:40:54;2.80;99.90
5792;DHT22;2922;53.482;10.006;2023-04-07T05:43:20;2.90;99.90
5792;DHT22;2922;53.482;10.006;2023-04-07T05:45:46;2.90;99.90
5792;DHT22;2922;53.482;10.006;2023-04-07T05:48:12;3.00;99.90
5792;DHT22;2922;53.482;10.006;2023-04-07T05:50:37;3.00;99.90
5792;DHT22;2922;53.482;10.006;2023-04-07T05:53:03;3.10;99.90
5792;DHT22;2922;53.482;10.006;2023-04-07T05:55:28;3.20;99.90
5792;DHT22;2922;53.482;10.006;2023-04-07T05:57:54;3.20;99.90
5792;DHT22;2922;53.482;10.006;2023-04-07T06:00:19;3.30;99.90
5792;DHT22;2922;53.482;10.006;2023-04-07T06:02:45;3.40;99.90
5792;DHT22;2922;53.482;10.006;2023-04-07T06:05:11;3.40;99.90
5792;DHT22;2922;53.482;10.006;2023-04-07T06:07:37;3.50;99.90
5792;DHT22;2922;53.482;10.006;2023-04-07T06:10:02;3.60;99.90
5792;DHT22;2922;53.482;10.006;2023-04-07T06:12:28;3.60;99.90
5792;DHT22;2922;53.482;10.006;2023-04-07T06:14:54;3.70;99.90
5792;DHT22;2922;53.482;10.006;2023-04-07T06:17:21;3.80;99.90
5792;DHT22;2922;53.482;10.006;2023-04-07T06:19:46;3.90;99.90
5792;DHT22;2922;53.482;10.006;2023-04-07T06:22:12;3.90;99.90
5792;DHT22;2922;53.482;10.006;2023-04-07T06:24:37;4.00;99.90
5792;DHT22;2922;53.482;10.006;2023-04-07T06:27:03;4.10;99.90
5792;DHT22;2922;53.482;10.006;2023-04-07T06:29:29;4.20;99.90
5792;DHT22;2922;53.482;10.006;2023-04-07T06:31:55;4.30;99.90
5792;DHT22;2922;53.482;10.006;2023-04-07T06:34:21;4.40;99.90
5792;DHT22;2922;53.482;10.006;2023-04-07T06:36:46;4.50;99.90
5792;DHT22;2922;53.482;10.006;2023-04-07T06:39:12;4.60;99.90
5792;DHT22;2922;53.482;10.006;2023-04-07T06:41:37;4.70;99.90
5792;DHT22;2922;53.482;10.006;2023-04-07T06:44:03;4.90;99.90
5792;DHT22;2922;53.482;10.006;2023-04-07T06:46:29;5.00;99.90
5792;DHT22;2922;53.482;10.006;2023-04-07T06:48:55;5.10;99.90
5792;DHT22;2922;53.482;10.006;2023-04-07T06:51:20;5.20;99.90
5792;DHT22;2922;53.482;10.006;2023-04-07T06:53:46;5.30;99.90
5792;DHT22;2922;53.482;10.006;2023-04-07T06:56:13;5.40;99.90
5792;DHT22;2922;53.482;10.006;2023-04-07T06:58:39;5.60;99.90
5792;DHT22;2922;53.482;10.006;2023-04-07T07:01:05;5.70;99.90
5792;DHT22;2922;53.482;10.006;2023-04-07T07:03:31;5.80;99.90
5792;DHT22;2922;53.482;10.006;2023-04-07T07:06:00;6.00;99.90
5792;DHT22;2922;53.482;10.006;2023-04-07T07:08:26;6.20;99.90
5792;DHT22;2922;53.482;10.006;2023-04-07T07:10:53;6.30;99.90
5792;DHT22;2922;53.482;10.006;2023-04-07T07:13:20;6.50;99.90
5792;DHT22;2922;53.482;10.006;2023-04-07T07:15:47;6.60;99.90
5792;DHT22;2922;53.482;10.006;2023-04-07T07:18:13;6.80;99.90
5792;DHT22;2922;53.482;10.006;2023-04-07T07:20:39;6.90;99.90
5792;DHT22;2922;53.482;10.006;2023-04-07T07:23:04;7.10;99.90
5792;DHT22;2922;53.482;10.006;2023-04-07T07:25:30;7.30;99.90
5792;DHT22;2922;53.482;10.006;2023-04-07T07:27:56;7.50;99.90
5792;DHT22;2922;53.482;10.006;2023-04-07T07:30:22;7.60;99.90
5792;DHT22;2922;53.482;10.006;2023-04-07T07:32:49;7.80;99.90
5792;DHT22;2922;53.482;10.006;2023-04-07T07:35:15;7.90;99.90
5792;DHT22;2922;53.482;10.006;2023-04-07T07:37:41;8.10;99.90
5792;DHT22;2922;53.482;10.006;2023-04-07T07:40:08;8.20;99.90
5792;DHT22;2922;53.482;10.006;2023-04-07T07:42:34;8.30;99.90
5792;DHT22;2922;53.482;10.006;2023-04-07T07:45:00;8.40;99.90
5792;DHT22;2922;53.482;10.006;2023-04-07T07:47:25;8.60;99.90
5792;DHT22;2922;53.482;10.006;2023-04-07T07:49:52;8.70;99.90
5792;DHT22;2922;53.482;10.006;2023-04-07T07:52:18;8.80;99.90
5792;DHT22;2922;53.482;10.006;2023-04-07T07:54:45;9.00;99.30
5792;DHT22;2922;53.482;10.006;2023-04-07T07:57:10;9.10;96.90
5792;DHT22;2922;53.482;10.006;2023-04-07T07:59:37;9.10;96.10
5792;DHT22;2922;53.482;10.006;2023-04-07T08:02:02;9.20;94.30
5792;DHT22;2922;53.482;10.006;2023-04-07T08:04:28;9.50;96.30
5792;DHT22;2922;53.482;10.006;2023-04-07T08:06:53;9.60;95.00
5792;DHT22;2922;53.482;10.006;2023-04-07T08:09:19;9.70;92.70
5792;DHT22;2922;53.482;10.006;2023-04-07T08:11:45;9.70;92.60
5792;DHT22;2922;53.482;10.006;2023-04-07T08:14:13;9.80;92.20
5792;DHT22;2922;53.482;10.006;2023-04-07T08:16:38;10.00;91.90
5792;DHT22;2922;53.482;10.006;2023-04-07T08:19:04;10.10;91.90
5792;DHT22;2922;53.482;10.006;2023-04-07T08:21:30;10.30;91.60
5792;DHT22;2922;53.482;10.006;2023-04-07T08:23:56;10.40;91.10
5792;DHT22;2922;53.482;10.006;2023-04-07T08:26:21;10.60;90.30
5792;DHT22;2922;53.482;10.006;2023-04-07T08:28:50;10.80;89.90
5792;DHT22;2922;53.482;10.006;2023-04-07T08:31:16;10.90;88.00
5792;DHT22;2922;53.482;10.006;2023-04-07T08:33:41;11.10;86.70
5792;DHT22;2922;53.482;10.006;2023-04-07T08:36:07;11.10;83.80
5792;DHT22;2922;53.482;10.006;2023-04-07T08:38:33;11.20;82.00
5792;DHT22;2922;53.482;10.006;2023-04-07T08:41:11;11.20;78.80
5792;DHT22;2922;53.482;10.006;2023-04-07T08:43:38;11.20;78.70
5792;DHT22;2922;53.482;10.006;2023-04-07T08:46:04;11.20;77.30
5792;DHT22;2922;53.482;10.006;2023-04-07T08:48:30;11.20;76.40
5792;DHT22;2922;53.482;10.006;2023-04-07T08:51:04;11.20;77.30
5792;DHT22;2922;53.482;10.006;2023-04-07T08:53:47;11.40;76.50
5792;DHT22;2922;53.482;10.006;2023-04-07T08:56:17;11.50;74.00
5792;DHT22;2922;53.482;10.006;2023-04-07T08:58:44;11.50;74.70
5792;DHT22;2922;53.482;10.006;2023-04-07T09:01:10;11.70;71.90
5792;DHT22;2922;53.482;10.006;2023-04-07T09:03:37;11.70;71.80
5792;DHT22;2922;53.482;10.006;2023-04-07T09:06:03;11.80;73.40
5792;DHT22;2922;53.482;10.006;2023-04-07T09:08:28;11.90;70.10
5792;DHT22;2922;53.482;10.006;2023-04-07T09:10:56;12.20;73.30
5792;DHT22;2922;53.482;10.006;2023-04-07T09:13:23;12.30;69.40
5792;DHT22;2922;53.482;10.006;2023-04-07T09:15:49;12.50;67.60
5792;DHT22;2922;53.482;10.006;2023-04-07T09:18:15;12.70;68.10
5792;DHT22;2922;53.482;10.006;2023-04-07T09:21:01;12.90;70.20
5792;DHT22;2922;53.482;10.006;2023-04-07T09:23:31;13.00;66.40
5792;DHT22;2922;53.482;10.006;2023-04-07T09:25:58;13.00;63.80
5792;DHT22;2922;53.482;10.006;2023-04-07T09:28:24;13.00;64.20
5792;DHT22;2922;53.482;10.006;2023-04-07T09:30:54;12.80;62.60
5792;DHT22;2922;53.482;10.006;2023-04-07T09:33:27;12.90;61.80
5792;DHT22;2922;53.482;10.006;2023-04-07T09:35:53;12.90;59.60
5792;DHT22;2922;53.482;10.006;2023-04-07T09:38:18;13.10;58.00
5792;DHT22;2922;53.482;10.006;2023-04-07T09:40:44;13.30;59.50
5792;DHT22;2922;53.482;10.006;2023-04-07T09:43:17;13.40;58.40
5792;DHT22;2922;53.482;10.006;2023-04-07T09:45:43;13.50;59.70
5792;DHT22;2922;53.482;10.006;2023-04-07T09:48:19;13.60;57.90
5792;DHT22;2922;53.482;10.006;2023-04-07T09:50:45;13.90;58.70
5792;DHT22;2922;53.482;10.006;2023-04-07T09:53:14;14.00;58.00
5792;DHT22;2922;53.482;10.006;2023-04-07T09:55:41;14.10;56.30
5792;DHT22;2922;53.482;10.006;2023-04-07T09:58:08;14.30;56.10
5792;DHT22;2922;53.482;10.006;2023-04-07T10:00:36;14.40;58.60
5792;DHT22;2922;53.482;10.006;2023-04-07T10:03:03;14.50;53.70
5792;DHT22;2922;53.482;10.006;2023-04-07T10:05:28;14.50;54.80
5792;DHT22;2922;53.482;10.006;2023-04-07T10:07:55;14.70;55.30
5792;DHT22;2922;53.482;10.006;2023-04-07T10:10:21;14.80;53.40
5792;DHT22;2922;53.482;10.006;2023-04-07T10:12:49;14.90;54.30
5792;DHT22;2922;53.482;10.006;2023-04-07T10:15:17;15.10;54.00
5792;DHT22;2922;53.482;10.006;2023-04-07T10:17:45;15.20;52.60
5792;DHT22;2922;53.482;10.006;2023-04-07T10:20:12;15.30;52.00
5792;DHT22;2922;53.482;10.006;2023-04-07T10:22:40;15.30;52.00
5792;DHT22;2922;53.482;10.006;2023-04-07T10:25:08;15.60;49.50
5792;DHT22;2922;53.482;10.006;2023-04-07T10:27:41;15.70;51.00
5792;DHT22;2922;53.482;10.006;2023-04-07T10:30:23;15.60;50.00
5792;DHT22;2922;53.482;10.006;2023-04-07T10:32:51;15.20;50.30
5792;DHT22;2922;53.482;10.006;2023-04-07T10:35:17;15.00;49.20
5792;DHT22;2922;53.482;10.006;2023-04-07T10:38:09;15.10;50.00
5792;DHT22;2922;53.482;10.006;2023-04-07T10:40:35;15.30;50.10
5792;DHT22;2922;53.482;10.006;2023-04-07T10:43:01;15.50;49.10
5792;DHT22;2922;53.482;10.006;2023-04-07T10:48:16;15.90;47.80
5792;DHT22;2922;53.482;10.006;2023-04-07T10:50:43;16.00;45.50
5792;DHT22;2922;53.482;10.006;2023-04-07T10:53:10;16.10;45.40
5792;DHT22;2922;53.482;10.006;2023-04-07T10:55:45;16.00;44.20
5792;DHT22;2922;53.482;10.006;2023-04-07T11:03:26;16.40;44.70
5792;DHT22;2922;53.482;10.006;2023-04-07T11:06:01;16.60;45.70
5792;DHT22;2922;53.482;10.006;2023-04-07T11:08:34;16.70;45.20
5792;DHT22;2922;53.482;10.006;2023-04-07T11:11:00;16.50;45.60
5792;DHT22;2922;53.482;10.006;2023-04-07T11:13:26;16.70;47.70
5792;DHT22;2922;53.482;10.006;2023-04-07T11:15:52;17.00;44.80
5792;DHT22;2922;53.482;10.006;2023-04-07T11:18:21;17.10;43.60
5792;DHT22;2922;53.482;10.006;2023-04-07T11:20:54;17.10;44.00
5792;DHT22;2922;53.482;10.006;2023-04-07T11:23:22;17.10;41.30
5792;DHT22;2922;53.482;10.006;2023-04-07T11:25:50;17.30;46.30
5792;DHT22;2922;53.482;10.006;2023-04-07T11:28:16;17.50;45.40
5792;DHT22;2922;53.482;10.006;2023-04-07T11:30:50;17.50;43.60
5792;DHT22;2922;53.482;10.006;2023-04-07T11:33:18;17.60;44.00
5792;DHT22;2922;53.482;10.006;2023-04-07T11:36:02;17.60;43.20
5792;DHT22;2922;53.482;10.006;2023-04-07T11:38:29;17.70;45.10
5792;DHT22;2922;53.482;10.006;2023-04-07T11:41:09;17.50;42.30
5792;DHT22;2922;53.482;10.006;2023-04-07T11:43:35;17.70;44.10
5792;DHT22;2922;53.482;10.006;2023-04-07T11:46:16;17.90;41.00
5792;DHT22;2922;53.482;10.006;2023-04-07T11:48:43;18.10;44.40
5792;DHT22;2922;53.482;10.006;2023-04-07T11:51:21;18.10;43.70
5792;DHT22;2922;53.482;10.006;2023-04-07T11:53:54;17.90;40.90
5792;DHT22;2922;53.482;10.006;2023-04-07T11:56:19;18.10;41.50
5792;DHT22;2922;53.482;10.006;2023-04-07T11:58:47;18.10;40.20
5792;DHT22;2922;53.482;10.006;2023-04-07T12:01:13;18.10;39.30
5792;DHT22;2922;53.482;10.006;2023-04-07T12:04:00;18.00;41.80
5792;DHT22;2922;53.482;10.006;2023-04-07T12:06:28;18.10;42.10
5792;DHT22;2922;53.482;10.006;2023-04-07T12:08:55;18.00;39.50
5792;DHT22;2922;53.482;10.006;2023-04-07T12:11:20;17.90;40.50
5792;DHT22;2922;53.482;10.006;2023-04-07T12:13:46;18.20;40.70
5792;DHT22;2922;53.482;10.006;2023-04-07T12:16:11;18.00;40.60
5792;DHT22;2922;53.482;10.006;2023-04-07T12:18:37;18.00;39.30
5792;DHT22;2922;53.482;10.006;2023-04-07T12:21:03;18.10;42.10
5792;DHT22;2922;53.482;10.006;2023-04-07T12:23:28;18.30;43.40
5792;DHT22;2922;53.482;10.006;2023-04-07T12:25:54;18.30;40.80
5792;DHT22;2922;53.482;10.006;2023-04-07T12:28:19;18.40;40.80
5792;DHT22;2922;53.482;10.006;2023-04-07T12:30:45;18.20;36.50
5792;DHT22;2922;53.482;10.006;2023-04-07T12:33:11;18.30;39.40
5792;DHT22;2922;53.482;10.006;2023-04-07T12:35:37;18.50;37.90
5792;DHT22;2922;53.482;10.006;2023-04-07T12:38:03;18.60;39.30
5792;DHT22;2922;53.482;10.006;2023-04-07T12:40:30;18.70;36.90
5792;DHT22;2922;53.482;10.006;2023-04-07T12:42:56;18.70;39.00
5792;DHT22;2922;53.482;10.006;2023-04-07T12:45:23;18.60;37.10
5792;DHT22;2922;53.482;10.006;2023-04-07T12:47:48;18.10;36.20
5792;DHT22;2922;53.482;10.006;2023-04-07T12:50:14;18.20;40.00
5792;DHT22;2922;53.482;10.006;2023-04-07T12:52:40;18.20;37.50
5792;DHT22;2922;53.482;10.006;2023-04-07T12:55:06;18.40;39.00
5792;DHT22;2922;53.482;10.006;2023-04-07T12:57:32;18.00;37.50
5792;DHT22;2922;53.482;10.006;2023-04-07T12:59:58;17.80;38.10
5792;DHT22;2922;53.482;10.006;2023-04-07T13:02:23;17.90;43.10
5792;DHT22;2922;53.482;10.006;2023-04-07T13:04:49;18.00;39.20
5792;DHT22;2922;53.482;10.006;2023-04-07T13:07:15;17.90;37.50
5792;DHT22;2922;53.482;10.006;2023-04-07T13:09:41;18.10;39.70
5792;DHT22;2922;53.482;10.006;2023-04-07T13:12:11;18.00;37.70
5792;DHT22;2922;53.482;10.006;2023-04-07T13:14:40;17.90;36.60
5792;DHT22;2922;53.482;10.006;2023-04-07T13:17:06;18.20;40.60
5792;DHT22;2922;53.482;10.006;2023-04-07T13:19:33;18.40;40.20
5792;DHT22;2922;53.482;10.006;2023-04-07T13:21:59;18.60;40.00
5792;DHT22;2922;53.482;10.006;2023-04-07T13:24:25;18.40;37.80
5792;DHT22;2922;53.482;10.006;2023-04-07T13:26:51;18.10;39.90
5792;DHT22;2922;53.482;10.006;2023-04-07T13:29:17;18.30;38.20
5792;DHT22;2922;53.482;10.006;2023-04-07T13:31:46;18.20;39.90
5792;DHT22;2922;53.482;10.006;2023-04-07T13:34:12;18.00;38.40
5792;DHT22;2922;53.482;10.006;2023-04-07T13:36:38;18.20;38.80
5792;DHT22;2922;53.482;10.006;2023-04-07T13:39:04;18.00;42.10
5792;DHT22;2922;53.482;10.006;2023-04-07T13:41:29;17.80;40.80
5792;DHT22;2922;53.482;10.006;2023-04-07T13:43:56;17.90;41.70
5792;DHT22;2922;53.482;10.006;2023-04-07T13:46:23;17.90;37.60
5792;DHT22;2922;53.482;10.006;2023-04-07T13:48:48;17.90;37.30
5792;DHT22;2922;53.482;10.006;2023-04-07T13:51:15;17.80;36.00
5792;DHT22;2922;53.482;10.006;2023-04-07T13:53:41;17.60;36.20
5792;DHT22;2922;53.482;10.006;2023-04-07T13:56:06;17.70;35.90
5792;DHT22;2922;53.482;10.006;2023-04-07T13:58:33;17.90;38.00
5792;DHT22;2922;53.482;10.006;2023-04-07T14:01:00;17.50;38.80
5792;DHT22;2922;53.482;10.006;2023-04-07T14:03:25;17.40;41.10
5792;DHT22;2922;53.482;10.006;2023-04-07T14:05:52;17.30;42.20
5792;DHT22;2922;53.482;10.006;2023-04-07T14:08:19;17.30;39.40
5792;DHT22;2922;53.482;10.006;2023-04-07T14:10:48;17.10;40.30
5792;DHT22;2922;53.482;10.006;2023-04-07T14:13:13;17.10;43.10
5792;DHT22;2922;53.482;10.006;2023-04-07T14:15:39;17.30;41.30
5792;DHT22;2922;53.482;10.006;2023-04-07T14:18:04;17.30;42.20
5792;DHT22;2922;53.482;10.006;2023-04-07T14:20:31;17.30;40.40
5792;DHT22;2922;53.482;10.006;2023-04-07T14:22:56;17.20;41.20
5792;DHT22;2922;53.482;10.006;2023-04-07T14:25:22;17.00;40.30
5792;DHT22;2922;53.482;10.006;2023-04-07T14:27:48;16.80;43.50
5792;DHT22;2922;53.482;10.006;2023-04-07T14:30:13;16.90;42.00
5792;DHT22;2922;53.482;10.006;2023-04-07T14:32:39;16.80;41.90
5792;DHT22;2922;53.482;10.006;2023-04-07T14:35:05;16.70;42.90
5792;DHT22;2922;53.482;10.006;2023-04-07T14:37:30;16.60;44.00
5792;DHT22;2922;53.482;10.006;2023-04-07T14:39:56;16.70;43.50
5792;DHT22;2922;53.482;10.006;2023-04-07T14:42:22;16.60;44.80
5792;DHT22;2922;53.482;10.006;2023-04-07T14:44:48;16.70;44.90
5792;DHT22;2922;53.482;10.006;2023-04-07T14:47:14;16.80;45.00
5792;DHT22;2922;53.482;10.006;2023-04-07T14:49:39;16.60;47.50
5792;DHT22;2922;53.482;10.006;2023-04-07T14:52:05;16.40;52.60
5792;DHT22;2922;53.482;10.006;2023-04-07T14:54:30;16.30;51.80
5792;DHT22;2922;53.482;10.006;2023-04-07T14:56:56;15.80;52.60
5792;DHT22;2922;53.482;10.006;2023-04-07T14:59:21;15.60;55.20
5792;DHT22;2922;53.482;10.006;2023-04-07T15:01:47;15.60;55.20
5792;DHT22;2922;53.482;10.006;2023-04-07T15:04:14;15.30;54.60
5792;DHT22;2922;53.482;10.006;2023-04-07T15:06:40;14.90;55.60
5792;DHT22;2922;53.482;10.006;2023-04-07T15:09:07;14.70;56.20
5792;DHT22;2922;53.482;10.006;2023-04-07T15:11:33;14.50;56.80
5792;DHT22;2922;53.482;10.006;2023-04-07T15:13:58;14.10;56.90
5792;DHT22;2922;53.482;10.006;2023-04-07T15:16:25;14.00;58.80
5792;DHT22;2922;53.482;10.006;2023-04-07T15:18:51;14.00;57.80
5792;DHT22;2922;53.482;10.006;2023-04-07T15:21:17;13.80;57.60
5792;DHT22;2922;53.482;10.006;2023-04-07T15:23:44;13.60;58.50
5792;DHT22;2922;53.482;10.006;2023-04-07T15:26:10;13.40;58.50
5792;DHT22;2922;53.482;10.006;2023-04-07T15:28:36;13.10;58.80
5792;DHT22;2922;53.482;10.006;2023-04-07T15:31:01;13.10;59.40
5792;DHT22;2922;53.482;10.006;2023-04-07T15:33:27;13.00;60.90
5792;DHT22;2922;53.482;10.006;2023-04-07T15:35:53;13.00;61.20
5792;DHT22;2922;53.482;10.006;2023-04-07T15:38:18;13.00;62.20
5792;DHT22;2922;53.482;10.006;2023-04-07T15:40:44;13.10;63.30
5792;DHT22;2922;53.482;10.006;2023-04-07T15:43:10;13.00;62.20
5792;DHT22;2922;53.482;10.006;2023-04-07T15:45:42;12.90;63.60
5792;DHT22;2922;53.482;10.006;2023-04-07T15:48:09;12.70;64.90
5792;DHT22;2922;53.482;10.006;2023-04-07T15:50:35;12.50;65.90
5792;DHT22;2922;53.482;10.006;2023-04-07T15:53:05;12.50;67.30
5792;DHT22;2922;53.482;10.006;2023-04-07T15:55:32;12.50;68.70
5792;DHT22;2922;53.482;10.006;2023-04-07T15:57:58;12.40;70.30
5792;DHT22;2922;53.482;10.006;2023-04-07T16:00:24;12.30;71.20
5792;DHT22;2922;53.482;10.006;2023-04-07T16:02:50;12.30;72.10
5792;DHT22;2922;53.482;10.006;2023-04-07T16:05:16;12.30;73.50
5792;DHT22;2922;53.482;10.006;2023-04-07T16:07:41;12.20;73.00